createdAt,value
2018-06-10T00:00:35.795Z,518.85
2018-06-10T00:03:03.231Z,521.10
2018-06-10T00:07:57.604Z,522.57
2018-06-10T00:10:25.900Z,522.15
2018-06-10T00:12:53.334Z,522.83
2018-06-10T00:15:20.777Z,520.05
2018-06-10T00:17:48.213Z,516.70
2018-06-10T00:20:15.662Z,519.17
2018-06-10T00:22:43.113Z,524.12
2018-06-10T00:25:10.578Z,518.97
2018-06-10T00:27:38.061Z,519.73
2018-06-10T00:30:05.767Z,524.98
2018-06-10T00:32:33.206Z,519.85
2018-06-10T00:35:00.634Z,517.08
2018-06-10T00:37:28.078Z,522.25
2018-06-10T00:39:55.503Z,517.63
2018-06-10T00:42:22.952Z,529.27
2018-06-10T00:44:50.431Z,552.15
2018-06-10T00:47:17.874Z,523.33
2018-06-10T00:49:45.306Z,530.70
2018-06-10T00:52:12.783Z,581.95
2018-06-10T00:54:40.232Z,538.10
2018-06-10T00:57:07.943Z,561.85
2018-06-10T00:59:35.402Z,574.60
2018-06-10T01:02:02.875Z,558.42
2018-06-10T01:04:30.306Z,585.87
2018-06-10T01:06:58.554Z,543.45
2018-06-10T01:09:27.240Z,568.37
2018-06-10T01:11:55.653Z,551.95
2018-06-10T01:14:23.125Z,575.87
2018-06-10T01:16:50.598Z,564.10
2018-06-10T01:19:18.042Z,583.05
2018-06-10T01:21:45.514Z,579.65
2018-06-10T01:24:12.954Z,569.45
2018-06-10T01:26:46.155Z,545.62
2018-06-10T01:29:13.621Z,553.52
2018-06-10T01:31:41.050Z,565.38
2018-06-10T01:34:08.524Z,525.53
2018-06-10T01:36:35.970Z,528.70
2018-06-10T01:39:05.167Z,543.48
2018-06-10T01:41:32.602Z,525.65
2018-06-10T01:44:00.454Z,520.00
2018-06-10T01:46:27.914Z,525.08
2018-06-10T01:48:55.379Z,522.00
2018-06-10T01:51:22.836Z,538.45
2018-06-10T01:53:50.318Z,523.45
2018-06-10T01:56:17.761Z,514.10
2018-06-10T01:58:45.236Z,526.17
2018-06-10T02:01:12.698Z,523.88
2018-06-10T02:03:40.170Z,525.35
2018-06-10T02:06:07.631Z,528.60
2018-06-10T02:08:35.109Z,548.83
2018-06-10T02:11:03.746Z,527.75
2018-06-10T02:13:31.230Z,554.50
2018-06-10T02:15:58.726Z,531.97
2018-06-10T02:18:26.198Z,546.15
2018-06-10T02:20:53.643Z,545.23
2018-06-10T02:23:21.114Z,525.77
2018-06-10T02:25:48.599Z,524.95
2018-06-10T02:28:16.051Z,551.25
2018-06-10T02:30:43.683Z,520.43
2018-06-10T02:33:11.432Z,521.92
2018-06-10T02:35:38.854Z,534.17
2018-06-10T02:38:06.626Z,523.93
2018-06-10T02:40:34.078Z,528.60
2018-06-10T02:43:01.707Z,532.52
2018-06-10T02:45:29.143Z,525.33
2018-06-10T02:47:56.604Z,536.33
2018-06-10T02:50:24.038Z,527.88
2018-06-10T02:52:51.487Z,551.98
2018-06-10T02:55:18.971Z,529.90
2018-06-10T02:57:46.435Z,528.92
2018-06-10T03:00:13.899Z,550.05
2018-06-10T03:02:41.363Z,549.02
2018-06-10T03:05:08.782Z,540.30
2018-06-10T03:07:36.210Z,545.17
2018-06-10T03:10:03.696Z,547.48
2018-06-10T03:12:31.178Z,532.85
2018-06-10T03:14:58.657Z,583.20
2018-06-10T03:17:26.103Z,524.33
2018-06-10T03:19:53.578Z,551.27
2018-06-10T03:22:21.041Z,561.92
2018-06-10T03:24:48.502Z,594.55
2018-06-10T03:27:16.243Z,580.40
2018-06-10T03:29:43.963Z,589.17
2018-06-10T03:32:11.680Z,613.08
2018-06-10T03:34:39.142Z,575.70
2018-06-10T03:37:06.583Z,580.42
2018-06-10T03:39:34.294Z,583.40
2018-06-10T03:42:01.735Z,609.63
2018-06-10T03:44:29.182Z,602.55
2018-06-10T03:46:56.611Z,624.60
2018-06-10T03:49:24.102Z,612.92
2018-06-10T03:51:51.532Z,596.55
2018-06-10T03:54:18.971Z,575.72
2018-06-10T03:56:46.429Z,564.50
2018-06-10T03:59:13.846Z,612.67
2018-06-10T04:01:41.618Z,583.62
2018-06-10T04:04:09.090Z,618.83
2018-06-10T04:06:36.562Z,581.47
2018-06-10T04:09:05.883Z,569.85
2018-06-10T04:11:33.358Z,589.58
2018-06-10T04:14:00.814Z,638.03
2018-06-10T04:16:28.606Z,588.87
2018-06-10T04:18:56.673Z,603.65
2018-06-10T04:21:24.442Z,605.98
2018-06-10T04:23:51.874Z,594.77
2018-06-10T04:26:19.602Z,577.20
2018-06-10T04:28:47.365Z,570.93
2018-06-10T04:31:14.806Z,616.17
2018-06-10T04:33:42.286Z,586.92
2018-06-10T04:36:09.722Z,555.77
2018-06-10T04:38:37.227Z,604.45
2018-06-10T04:41:04.670Z,604.85
2018-06-10T04:43:32.138Z,613.87
2018-06-10T04:45:59.578Z,617.92
2018-06-10T04:48:27.062Z,583.98
2018-06-10T04:50:54.515Z,608.87
2018-06-10T04:53:21.958Z,620.88
2018-06-10T04:55:56.122Z,601.67
2018-06-10T04:58:23.939Z,643.05
2018-06-10T05:00:51.661Z,631.23
2018-06-10T05:03:19.153Z,580.55
2018-06-10T05:05:46.606Z,646.33
2018-06-10T05:08:14.032Z,637.23
2018-06-10T05:10:41.478Z,634.25
2018-06-10T05:13:08.924Z,644.73
2018-06-10T05:15:36.389Z,653.35
2018-06-10T05:18:03.797Z,640.15
2018-06-10T05:20:31.255Z,668.17
2018-06-10T05:22:58.690Z,677.80
2018-06-10T05:25:26.210Z,717.37
2018-06-10T05:27:53.638Z,689.78
2018-06-10T05:30:21.084Z,729.10
2018-06-10T05:32:48.555Z,739.23
2018-06-10T05:35:15.977Z,748.08
2018-06-10T05:37:43.439Z,750.85
2018-06-10T05:40:10.863Z,729.90
2018-06-10T05:42:38.350Z,701.58
2018-06-10T05:45:05.794Z,742.08
2018-06-10T05:47:33.245Z,750.02
2018-06-10T05:50:00.694Z,732.70
2018-06-10T05:52:28.154Z,731.47
2018-06-10T05:54:55.603Z,716.30
2018-06-10T05:57:23.083Z,735.07
2018-06-10T05:59:50.541Z,766.27
2018-06-10T06:02:18.015Z,758.80
2018-06-10T06:04:45.470Z,781.00
2018-06-10T06:07:12.946Z,770.98
2018-06-10T06:09:40.414Z,753.48
2018-06-10T06:12:07.850Z,736.65
2018-06-10T06:14:35.302Z,735.48
2018-06-10T06:17:02.778Z,736.28
2018-06-10T06:19:30.776Z,737.58
2018-06-10T06:21:58.223Z,726.67
2018-06-10T06:24:25.653Z,733.17
2018-06-10T06:26:53.122Z,727.65
2018-06-10T06:29:20.576Z,716.98
2018-06-10T06:31:48.026Z,739.37
2018-06-10T06:34:15.499Z,725.58
2018-06-10T06:36:42.958Z,714.30
2018-06-10T06:39:10.668Z,719.00
2018-06-10T06:41:38.147Z,732.95
2018-06-10T06:44:05.598Z,758.80
2018-06-10T06:46:33.074Z,753.43
2018-06-10T06:49:00.697Z,762.83
2018-06-10T06:51:28.386Z,776.22
2018-06-10T06:53:55.829Z,795.70
2018-06-10T06:56:23.303Z,780.83
2018-06-10T06:58:50.732Z,752.08
2018-06-10T07:01:18.206Z,775.40
2018-06-10T07:03:45.686Z,755.22
2018-06-10T07:06:13.154Z,757.35
2018-06-10T07:08:40.622Z,743.15
2018-06-10T07:11:08.066Z,755.55
2018-06-10T07:13:35.534Z,755.65
2018-06-10T07:16:03.042Z,784.65
2018-06-10T07:18:30.782Z,771.27
2018-06-10T07:20:58.218Z,782.95
2018-06-10T07:23:25.962Z,782.80
2018-06-10T07:25:53.434Z,777.02
2018-06-10T07:28:21.248Z,784.45
2018-06-10T07:30:48.702Z,800.13
2018-06-10T07:33:16.806Z,804.48
2018-06-10T07:35:45.214Z,818.85
2018-06-10T07:38:13.296Z,820.12
2018-06-10T07:40:40.805Z,818.85
2018-06-10T07:43:08.243Z,833.17
2018-06-10T07:45:35.718Z,859.92
2018-06-10T07:48:03.152Z,858.98
2018-06-10T07:50:30.611Z,848.98
2018-06-10T07:52:58.056Z,880.25
2018-06-10T07:55:25.502Z,884.30
2018-06-10T07:57:53.526Z,917.23
2018-06-10T08:00:21.303Z,895.42
2018-06-10T08:02:48.831Z,898.62
2018-06-10T08:05:16.326Z,902.37
2018-06-10T08:07:43.733Z,911.03
2018-06-10T08:10:11.179Z,938.17
2018-06-10T08:12:38.618Z,929.17
2018-06-10T08:15:06.068Z,940.25
2018-06-10T08:17:33.736Z,966.65
2018-06-10T08:20:01.585Z,967.83
2018-06-10T08:22:29.223Z,978.97
2018-06-10T08:24:56.920Z,949.10
2018-06-10T08:27:24.358Z,972.15
2018-06-10T08:29:51.807Z,933.53
2018-06-10T08:32:20.162Z,956.32
2018-06-10T08:34:48.058Z,945.35
2018-06-10T08:37:15.482Z,936.92
2018-06-10T08:39:42.930Z,932.62
2018-06-10T08:42:10.448Z,957.40
2018-06-10T08:44:37.929Z,964.00
2018-06-10T08:47:05.363Z,979.40
2018-06-10T08:49:32.814Z,918.17
2018-06-10T08:52:00.254Z,958.63
2018-06-10T08:54:27.726Z,955.25
2018-06-10T08:56:55.207Z,983.92
2018-06-10T08:59:22.630Z,979.85
2018-06-10T09:01:50.366Z,968.62
2018-06-10T09:04:17.887Z,992.22
2018-06-10T09:06:45.326Z,958.03
2018-06-10T09:09:13.114Z,940.47
2018-06-10T09:11:40.547Z,957.02
2018-06-10T09:14:08.026Z,958.77
2018-06-10T09:16:35.470Z,952.82
2018-06-10T09:19:02.941Z,935.73
2018-06-10T09:21:30.402Z,957.93
2018-06-10T09:23:57.854Z,944.97
2018-06-10T09:26:25.318Z,955.10
2018-06-10T09:28:52.756Z,926.62
2018-06-10T09:31:20.247Z,969.40
2018-06-10T09:33:47.685Z,935.50
2018-06-10T09:36:15.455Z,924.47
2018-06-10T09:38:42.891Z,958.68
2018-06-10T09:41:10.375Z,959.83
2018-06-10T09:43:37.958Z,963.20
2018-06-10T09:46:05.426Z,966.07
2018-06-10T09:48:32.882Z,970.65
2018-06-10T09:51:00.350Z,1008.15
2018-06-10T09:53:27.799Z,1010.58
2018-06-10T09:55:55.255Z,986.52
2018-06-10T09:58:22.696Z,1017.60
2018-06-10T10:00:50.165Z,1012.35
2018-06-10T10:03:17.658Z,967.15
2018-06-10T10:05:45.160Z,1015.75
2018-06-10T10:08:12.866Z,1047.90
2018-06-10T10:10:40.498Z,1029.23
2018-06-10T10:13:07.950Z,1021.85
2018-06-10T10:15:35.643Z,1027.10
2018-06-10T10:18:03.436Z,1060.33
2018-06-10T10:20:30.886Z,1052.78
2018-06-10T10:22:58.658Z,1033.40
2018-06-10T10:25:26.140Z,1059.33
2018-06-10T10:27:53.613Z,1042.75
2018-06-10T10:30:21.035Z,1053.88
2018-06-10T10:32:48.507Z,1013.30
2018-06-10T10:35:15.938Z,1035.80
2018-06-10T10:37:43.397Z,1035.50
2018-06-10T10:40:10.849Z,1044.20
2018-06-10T10:42:38.328Z,1036.88
2018-06-10T10:45:05.948Z,979.25
2018-06-10T10:47:33.450Z,967.45
2018-06-10T10:50:00.894Z,974.27
2018-06-10T10:52:28.406Z,961.37
2018-06-10T10:54:56.097Z,931.15
2018-06-10T10:57:23.582Z,926.90
2018-06-10T10:59:51.010Z,929.60
2018-06-10T11:02:18.466Z,819.97
2018-06-10T11:04:45.922Z,694.55
2018-06-10T11:07:13.639Z,897.10
2018-06-10T11:09:41.406Z,862.48
2018-06-10T11:12:08.870Z,1012.27
2018-06-10T11:14:36.338Z,810.28
2018-06-10T11:17:03.806Z,852.63
2018-06-10T11:19:31.255Z,834.47
2018-06-10T11:21:58.967Z,762.10
2018-06-10T11:24:26.398Z,765.17
2018-06-10T11:26:53.998Z,782.73
2018-06-10T11:29:21.438Z,783.67
2018-06-10T11:31:48.862Z,799.53
2018-06-10T11:34:16.320Z,814.87
2018-06-10T11:36:43.781Z,906.80
2018-06-10T11:39:11.210Z,773.90
2018-06-10T11:41:38.667Z,810.90
2018-06-10T11:44:06.102Z,648.90
2018-06-10T11:46:33.591Z,770.90
2018-06-10T11:49:01.206Z,860.40
2018-06-10T11:51:28.680Z,772.00
2018-06-10T11:53:56.123Z,821.60
2018-06-10T11:56:23.561Z,923.90
2018-06-10T11:58:50.982Z,717.90
2018-06-10T12:01:18.666Z,873.00
2018-06-10T12:03:46.159Z,900.95
2018-06-10T12:06:13.617Z,756.40
2018-06-10T12:08:41.054Z,864.12
2018-06-10T12:11:08.539Z,832.55
2018-06-10T12:13:35.962Z,889.85
2018-06-10T12:16:03.398Z,874.40
2018-06-10T12:18:30.846Z,981.77
2018-06-10T12:20:58.270Z,1040.13
2018-06-10T12:23:25.755Z,1039.05
2018-06-10T12:25:53.199Z,1097.70
2018-06-10T12:28:20.670Z,1033.93
2018-06-10T12:30:48.090Z,1007.35
2018-06-10T12:33:15.559Z,1006.38
2018-06-10T12:35:43.046Z,1026.28
2018-06-10T12:38:10.498Z,1032.13
2018-06-10T12:40:37.926Z,1062.85
2018-06-10T12:43:05.378Z,1055.93
2018-06-10T12:45:33.115Z,1059.10
2018-06-10T12:48:00.566Z,1036.98
2018-06-10T12:50:28.005Z,1083.22
2018-06-10T12:52:55.458Z,1083.10
2018-06-10T13:46:49.402Z,594.15
2018-06-10T13:49:16.856Z,790.20
2018-06-10T14:28:28.638Z,1046.30
2018-06-10T14:30:56.106Z,773.90
2018-06-10T14:35:50.750Z,958.27
2018-06-10T14:38:18.238Z,1138.45
2018-06-10T14:40:45.702Z,827.43
2018-06-10T14:50:33.966Z,631.23
2018-06-10T15:15:04.538Z,520.17
2018-06-10T15:17:32.010Z,630.20
2018-06-10T15:54:17.781Z,1047.75
2018-06-10T15:56:45.245Z,1041.33
2018-06-10T15:59:12.674Z,1014.85
2018-06-10T16:01:40.173Z,1019.85
2018-06-10T16:04:07.631Z,985.28
2018-06-10T16:06:35.098Z,1037.83
2018-06-10T16:09:02.719Z,699.70
2018-06-10T16:11:30.174Z,580.50
2018-06-10T16:13:57.598Z,562.90
2018-06-10T16:16:25.070Z,961.15
2018-06-10T16:18:52.500Z,983.70
2018-06-10T16:21:19.975Z,970.05
2018-06-10T16:23:47.427Z,993.95
2018-06-10T16:26:14.895Z,980.67
2018-06-10T16:28:42.331Z,986.90
2018-06-10T16:31:09.822Z,716.88
2018-06-10T16:40:58.111Z,800.10
2018-06-10T17:17:43.018Z,769.65
2018-06-10T19:28:31.997Z,743.55
2018-06-10T19:30:59.462Z,849.02
2018-06-10T19:33:26.903Z,890.17
2018-06-10T19:35:54.430Z,845.70
2018-06-10T19:38:21.858Z,848.55
2018-06-10T19:40:49.328Z,841.15
2018-06-10T19:43:16.778Z,833.47
2018-06-10T19:45:44.229Z,826.67
2018-06-10T19:48:11.659Z,831.27
2018-06-10T19:50:39.130Z,813.25
2018-06-10T19:53:06.582Z,821.10
2018-06-10T19:55:34.054Z,813.80
2018-06-10T19:58:01.479Z,843.07
2018-06-10T20:00:28.951Z,813.65
2018-06-10T20:02:56.371Z,814.50
2018-06-10T20:05:23.859Z,799.12
2018-06-10T20:07:51.363Z,806.87
2018-06-10T20:10:18.826Z,785.37
2018-06-10T20:12:46.250Z,778.37
2018-06-10T20:15:13.707Z,800.33
2018-06-10T20:17:41.130Z,806.35
2018-06-10T20:20:08.582Z,773.50
2018-06-10T20:22:36.368Z,780.92
2018-06-10T20:25:03.806Z,790.85
2018-06-10T20:27:31.487Z,775.33
2018-06-10T20:29:58.953Z,801.02
2018-06-10T20:32:26.391Z,749.73
2018-06-10T20:34:53.829Z,749.77
2018-06-10T20:37:21.263Z,746.12
2018-06-10T20:39:48.719Z,758.70
2018-06-10T20:42:16.169Z,650.17
2018-06-10T20:44:43.646Z,752.58
2018-06-10T20:47:11.101Z,751.65
2018-06-10T20:49:38.579Z,727.00
2018-06-10T20:52:06.011Z,763.87
2018-06-10T20:54:33.740Z,715.33
2018-06-10T20:57:01.182Z,755.37
2018-06-10T20:59:28.638Z,752.87
2018-06-10T21:01:56.387Z,741.88
2018-06-10T21:04:23.878Z,751.77
2018-06-10T21:06:51.326Z,692.20
2018-06-10T21:09:20.551Z,742.50
2018-06-10T21:11:48.713Z,763.42
2018-06-10T21:14:16.183Z,815.47
2018-06-10T21:16:43.627Z,809.05
2018-06-10T21:19:11.126Z,748.97
2018-06-10T21:21:38.808Z,704.10
2018-06-10T21:24:06.247Z,688.08
2018-06-10T21:26:33.707Z,722.42
2018-06-10T21:29:01.205Z,679.53
2018-06-10T21:31:28.671Z,772.80
2018-06-10T21:33:56.099Z,750.70
2018-06-10T21:36:23.887Z,717.90
2018-06-10T21:38:51.410Z,717.55
2018-06-10T21:41:18.870Z,689.67
2018-06-10T21:43:46.298Z,696.40
2018-06-10T21:46:13.738Z,745.67
2018-06-10T21:48:41.472Z,706.97
2018-06-10T21:51:08.926Z,880.93
2018-06-10T21:53:36.479Z,814.30
2018-06-10T22:10:45.798Z,490.75
2018-06-10T22:13:13.230Z,686.55
2018-06-10T22:15:40.683Z,736.47
2018-06-10T22:18:08.286Z,697.23
2018-06-10T22:20:35.750Z,682.92
2018-06-10T22:23:03.252Z,725.80
2018-06-10T22:25:30.849Z,664.20
2018-06-10T22:27:58.303Z,672.83
2018-06-10T22:30:25.740Z,673.62
2018-06-10T22:32:53.194Z,714.27
2018-06-10T22:35:20.626Z,718.25
2018-06-10T22:37:48.092Z,673.20
2018-06-10T22:40:15.530Z,655.05
2018-06-10T22:42:43.026Z,671.17
2018-06-10T22:45:10.482Z,652.90
2018-06-10T22:47:37.942Z,686.85
2018-06-10T22:50:05.384Z,544.70
2018-06-10T23:41:32.798Z,535.23
2018-06-10T23:44:00.263Z,738.00
2018-06-10T23:46:27.707Z,501.10
2018-06-10T23:48:55.158Z,646.03
2018-06-10T23:51:22.622Z,657.50
2018-06-10T23:53:50.059Z,555.35
2018-06-10T23:58:44.422Z,539.25
